createdAt,value
2023-01-24T00:02:39.599Z,72.86
2023-01-24T00:07:41.433Z,72.51
2023-01-24T00:12:48.303Z,72.77
2023-01-24T00:17:50.065Z,72.59
2023-01-24T00:22:52.050Z,72.16
2023-01-24T00:27:53.979Z,72.41
2023-01-24T00:32:57.619Z,72.22
2023-01-24T00:37:59.348Z,72.16
2023-01-24T00:43:01.097Z,72.43
2023-01-24T00:48:04.442Z,72.39
2023-01-24T00:53:06.648Z,72.11
2023-01-24T00:58:08.370Z,72.15
2023-01-24T01:03:16.161Z,72.15
2023-01-24T01:08:17.909Z,71.41
2023-01-24T01:13:19.776Z,71.11
2023-01-24T01:18:21.708Z,71.22
2023-01-24T01:23:23.522Z,70.79
2023-01-24T01:28:25.262Z,70.52
2023-01-24T01:33:29.583Z,70.77
2023-01-24T01:38:31.572Z,70.93
2023-01-24T01:43:33.377Z,71.28
2023-01-24T01:48:36.943Z,71.72
2023-01-24T01:54:02.036Z,71.50
2023-01-24T01:59:10.663Z,71.68
2023-01-24T02:04:19.297Z,72.01
2023-01-24T02:09:28.025Z,72.26
2023-01-24T02:14:50.201Z,72.41
2023-01-24T02:20:04.624Z,72.40
2023-01-24T02:25:21.114Z,72.57
2023-01-24T02:30:23.058Z,73.07
2023-01-24T02:35:31.036Z,73.30
2023-01-24T02:40:34.197Z,73.43
2023-01-24T02:45:36.594Z,73.62
2023-01-24T02:50:57.111Z,73.90
2023-01-24T02:56:22.174Z,73.96
2023-01-24T03:01:24.371Z,73.80
2023-01-24T03:06:28.991Z,73.93
2023-01-24T03:11:30.784Z,73.77
2023-01-24T03:16:51.678Z,73.51
2023-01-24T03:22:12.389Z,73.29
2023-01-24T03:27:43.268Z,73.61
2023-01-24T03:33:05.947Z,73.62
2023-01-24T03:38:27.377Z,73.17
2023-01-24T03:43:29.773Z,73.00
2023-01-24T03:48:37.249Z,73.06
2023-01-24T03:53:39.601Z,73.20
2023-01-24T03:58:41.981Z,73.54
2023-01-24T04:03:45.264Z,73.95
2023-01-24T04:08:47.585Z,74.35
2023-01-24T04:13:49.787Z,74.14
2023-01-24T04:18:51.536Z,74.16
2023-01-24T04:23:53.824Z,73.65
2023-01-24T04:28:56.181Z,73.71
2023-01-24T04:33:58.447Z,74.18
2023-01-24T04:39:02.199Z,74.19
2023-01-24T04:44:24.184Z,74.31
2023-01-24T04:49:27.503Z,74.18
2023-01-24T04:54:29.701Z,73.99
2023-01-24T04:59:31.727Z,74.46
2023-01-24T05:04:33.604Z,74.39
2023-01-24T05:09:35.712Z,74.27
2023-01-24T05:14:41.476Z,74.53
2023-01-24T05:19:44.735Z,74.70
2023-01-24T05:24:48.895Z,74.70
2023-01-24T05:29:51.416Z,74.58
2023-01-24T05:34:53.210Z,74.47
2023-01-24T05:39:55.209Z,74.13
2023-01-24T05:44:57.131Z,74.36
2023-01-24T05:49:59.848Z,73.76
2023-01-24T05:55:01.656Z,73.62
2023-01-24T06:00:06.392Z,73.88
2023-01-24T06:05:16.372Z,73.76
2023-01-24T06:10:18.216Z,73.50
2023-01-24T06:15:27.827Z,73.08
2023-01-24T06:20:31.169Z,72.74
2023-01-24T06:25:34.816Z,72.97
2023-01-24T06:30:40.927Z,72.78
2023-01-24T06:35:51.670Z,72.75
2023-01-24T06:41:03.603Z,73.23
2023-01-24T06:46:05.316Z,73.38
2023-01-24T06:51:07.083Z,72.89
2023-01-24T06:56:09.964Z,73.19
2023-01-24T07:01:11.770Z,73.31
2023-01-24T07:06:14.253Z,73.43
2023-01-24T07:11:15.983Z,73.09
2023-01-24T07:16:18.081Z,72.88
2023-01-24T07:21:20.083Z,72.70
2023-01-24T07:26:22.133Z,72.75
2023-01-24T07:31:24.069Z,72.56
2023-01-24T07:36:25.970Z,72.39
2023-01-24T07:41:27.701Z,72.04
2023-01-24T07:46:29.490Z,71.82
2023-01-24T07:51:31.777Z,71.77
2023-01-24T07:56:33.553Z,71.57
2023-01-24T08:01:35.245Z,71.66
2023-01-24T08:06:37.073Z,71.70
2023-01-24T08:11:38.918Z,71.57
2023-01-24T08:16:40.796Z,71.59
2023-01-24T08:21:42.894Z,71.52
2023-01-24T08:26:47.341Z,71.63
2023-01-24T08:31:49.599Z,71.56
2023-01-24T08:36:51.734Z,71.51
2023-01-24T08:41:53.457Z,71.91
2023-01-24T08:46:55.378Z,72.28
2023-01-24T08:52:00.181Z,72.96
2023-01-24T08:57:04.263Z,73.03
2023-01-24T09:02:06.784Z,73.26
2023-01-24T09:07:09.324Z,73.44
2023-01-24T09:12:11.096Z,74.25
2023-01-24T09:17:13.094Z,75.11
2023-01-24T09:22:14.930Z,75.39
2023-01-24T09:27:16.669Z,75.74
2023-01-24T09:32:18.580Z,75.98
2023-01-24T09:37:21.286Z,75.81
2023-01-24T09:42:38.777Z,75.46
2023-01-24T09:47:54.503Z,75.51
2023-01-24T09:52:59.725Z,75.50
2023-01-24T09:58:07.421Z,75.28
2023-01-24T10:03:21.020Z,75.30
2023-01-24T10:08:38.638Z,75.53
2023-01-24T10:13:52.436Z,75.76
2023-01-24T10:19:16.337Z,76.18
2023-01-24T10:24:24.342Z,76.41
2023-01-24T10:29:31.040Z,76.54
2023-01-24T10:34:53.997Z,76.50
2023-01-24T10:39:55.880Z,76.02
2023-01-24T10:45:10.062Z,75.45
2023-01-24T10:50:18.250Z,75.57
2023-01-24T10:55:37.343Z,75.86
2023-01-24T11:00:44.028Z,76.13
2023-01-24T11:05:51.186Z,76.42
2023-01-24T11:10:59.759Z,76.40
2023-01-24T11:16:18.663Z,76.61
2023-01-24T11:21:21.115Z,76.82
2023-01-24T11:26:31.718Z,76.80
2023-01-24T11:31:38.898Z,76.65
2023-01-24T11:37:02.912Z,76.76
2023-01-24T11:42:32.049Z,76.60
2023-01-24T11:47:40.614Z,76.44
2023-01-24T11:52:54.075Z,76.21
2023-01-24T11:58:01.618Z,75.28
2023-01-24T12:03:28.799Z,74.87
2023-01-24T12:08:42.164Z,74.77
2023-01-24T12:13:53.254Z,74.41
2023-01-24T12:19:24.985Z,74.06
2023-01-24T12:24:41.161Z,72.93
2023-01-24T12:30:02.854Z,73.16
2023-01-24T12:35:28.100Z,73.34
2023-01-24T12:40:36.035Z,73.37
2023-01-24T12:46:00.460Z,73.73
2023-01-24T12:51:27.446Z,73.76
2023-01-24T12:56:43.313Z,73.87
2023-01-24T13:02:25.794Z,74.01
2023-01-24T13:07:39.907Z,73.25
2023-01-24T13:12:44.917Z,71.55
2023-01-24T13:18:16.114Z,71.38
2023-01-24T13:23:32.329Z,71.77
2023-01-24T13:28:50.499Z,72.06
2023-01-24T13:33:59.604Z,72.81
2023-01-24T13:39:02.870Z,72.77
2023-01-24T13:44:07.458Z,72.58
2023-01-24T13:49:19.186Z,72.60
2023-01-24T13:54:44.274Z,72.17
2023-01-24T14:00:15.428Z,72.56
2023-01-24T14:05:29.616Z,73.01
2023-01-24T14:10:45.940Z,73.58
2023-01-24T14:15:47.701Z,72.93
2023-01-24T14:20:49.490Z,73.23
2023-01-24T14:25:54.322Z,73.24
2023-01-24T14:30:59.885Z,73.28
2023-01-24T14:36:24.699Z,72.76
2023-01-24T14:41:26.574Z,73.33
2023-01-24T14:46:28.301Z,74.12
2023-01-24T14:51:30.386Z,74.46
2023-01-24T14:56:40.650Z,74.91
2023-01-24T15:01:42.827Z,75.30
2023-01-24T15:06:44.725Z,75.35
2023-01-24T15:11:47.445Z,75.46
2023-01-24T15:16:54.783Z,75.29
2023-01-24T15:21:57.451Z,75.13
2023-01-24T15:27:01.312Z,74.88
2023-01-24T15:32:04.282Z,74.93
2023-01-24T15:37:13.038Z,75.10
2023-01-24T15:42:35.648Z,74.93
2023-01-24T15:47:46.171Z,75.23
2023-01-24T15:53:10.575Z,74.86
2023-01-24T15:58:13.464Z,74.41
2023-01-24T16:03:16.407Z,74.34
2023-01-24T16:08:19.474Z,74.22
2023-01-24T16:13:34.125Z,73.86
2023-01-24T16:18:35.847Z,73.43
2023-01-24T16:23:37.914Z,73.40
2023-01-24T16:28:39.640Z,72.24
2023-01-24T16:33:41.343Z,73.14
2023-01-24T16:38:45.005Z,73.06
2023-01-24T16:43:46.702Z,73.36
2023-01-24T16:48:48.396Z,73.88
2023-01-24T16:53:54.645Z,73.64
2023-01-24T16:58:56.406Z,73.77
2023-01-24T17:03:58.111Z,73.83
2023-01-24T17:08:59.892Z,73.84
2023-01-24T17:14:01.581Z,73.81
2023-01-24T17:19:03.440Z,73.18
2023-01-24T17:24:05.299Z,73.79
2023-01-24T17:29:07.034Z,74.56
2023-01-24T17:34:08.732Z,74.30
2023-01-24T17:39:10.797Z,74.19
2023-01-24T17:44:13.373Z,74.38
2023-01-24T17:49:15.235Z,73.84
2023-01-24T17:54:17.389Z,73.45
2023-01-24T17:59:19.403Z,72.92
2023-01-24T18:04:21.091Z,72.78
2023-01-24T18:09:22.805Z,72.26
2023-01-24T18:14:24.613Z,71.98
2023-01-24T18:19:26.629Z,71.31
2023-01-24T18:24:28.752Z,71.44
2023-01-24T18:29:30.464Z,70.95
2023-01-24T18:34:32.144Z,71.19
2023-01-24T18:39:34.226Z,71.44
2023-01-24T18:44:36.608Z,70.96
2023-01-24T18:49:38.402Z,71.24
2023-01-24T18:54:41.616Z,70.55
2023-01-24T18:59:43.487Z,70.81
2023-01-24T19:04:45.169Z,70.32
2023-01-24T19:09:46.871Z,69.14
2023-01-24T19:14:49.327Z,69.38
2023-01-24T19:19:53.342Z,69.98
2023-01-24T19:24:55.056Z,69.27
2023-01-24T19:29:56.817Z,69.80
2023-01-24T19:34:58.532Z,69.56
2023-01-24T19:40:00.275Z,70.10
2023-01-24T19:45:02.063Z,69.79
2023-01-24T19:50:04.041Z,71.37
2023-01-24T19:55:06.415Z,71.18
2023-01-24T20:00:10.329Z,70.55
2023-01-24T20:05:12.307Z,70.77
2023-01-24T20:10:14.211Z,70.12
2023-01-24T20:15:16.220Z,70.57
2023-01-24T20:20:20.794Z,70.04
2023-01-24T20:25:24.234Z,69.95
2023-01-24T20:30:27.619Z,70.36
2023-01-24T20:35:29.363Z,70.53
2023-01-24T20:40:31.088Z,70.14
2023-01-24T20:45:36.259Z,69.93
2023-01-24T20:50:37.960Z,69.86
2023-01-24T20:55:39.562Z,70.20
2023-01-24T21:00:41.277Z,70.51
2023-01-24T21:05:43.059Z,70.02
2023-01-24T21:10:48.923Z,69.74
2023-01-24T21:15:50.694Z,69.52
2023-01-24T21:20:57.187Z,69.67
2023-01-24T21:26:06.891Z,69.41
2023-01-24T21:31:13.062Z,69.29
2023-01-24T21:36:18.069Z,68.31
2023-01-24T21:41:42.723Z,68.60
2023-01-24T21:46:44.528Z,68.43
2023-01-24T21:51:54.889Z,68.93
2023-01-24T21:57:30.744Z,68.92
2023-01-24T22:02:35.383Z,69.01
2023-01-24T22:07:37.166Z,68.94
2023-01-24T22:12:44.508Z,69.25
2023-01-24T22:17:46.584Z,69.31
2023-01-24T22:23:19.332Z,69.06
2023-01-24T22:28:21.837Z,68.34
2023-01-24T22:33:24.469Z,68.57
2023-01-24T22:38:27.475Z,68.64
2023-01-24T22:43:29.189Z,69.32
2023-01-24T22:48:30.921Z,69.16
2023-01-24T22:53:32.651Z,69.21
2023-01-24T22:58:34.299Z,69.26
2023-01-24T23:03:35.919Z,69.55
2023-01-24T23:08:38.452Z,69.95
2023-01-24T23:13:59.733Z,70.43
2023-01-24T23:19:24.933Z,69.36
2023-01-24T23:24:26.728Z,69.17
2023-01-24T23:29:37.401Z,69.42
2023-01-24T23:34:40.552Z,69.92
2023-01-24T23:39:42.381Z,69.89
2023-01-24T23:44:44.924Z,70.08
2023-01-24T23:49:47.515Z,70.11
2023-01-24T23:54:49.200Z,70.20
2023-01-24T23:59:50.884Z,69.84
